createdAt,value
2023-03-29T00:01:35.264Z,2.60
2023-03-29T00:04:04.994Z,2.70
2023-03-29T00:06:33.164Z,2.70
2023-03-29T00:09:01.761Z,2.70
2023-03-29T00:11:28.924Z,2.70
2023-03-29T00:13:56.043Z,2.70
2023-03-29T00:16:24.032Z,2.70
2023-03-29T00:18:50.678Z,2.70
2023-03-29T00:21:17.716Z,2.80
2023-03-29T00:23:44.364Z,2.80
2023-03-29T00:26:11.826Z,2.70
2023-03-29T00:28:38.782Z,2.80
2023-03-29T00:31:11.714Z,2.70
2023-03-29T00:33:39.572Z,2.70
2023-03-29T00:36:08.531Z,2.70
2023-03-29T00:38:35.729Z,2.70
2023-03-29T00:41:04.295Z,2.70
2023-03-29T00:43:31.480Z,2.70
2023-03-29T00:45:58.157Z,2.70
2023-03-29T00:48:30.281Z,2.60
2023-03-29T00:51:07.014Z,2.60
2023-03-29T00:53:59.824Z,2.60
2023-03-29T00:56:35.167Z,2.60
2023-03-29T00:59:10.169Z,2.70
2023-03-29T01:01:54.926Z,2.60
2023-03-29T01:04:33.048Z,2.60
2023-03-29T01:07:21.330Z,2.70
2023-03-29T01:10:06.858Z,2.60
2023-03-29T01:12:38.023Z,2.60
2023-03-29T01:15:11.542Z,2.50
2023-03-29T01:17:40.669Z,2.30
2023-03-29T01:20:19.437Z,2.20
2023-03-29T01:23:07.501Z,2.10
2023-03-29T01:25:39.529Z,2.10
2023-03-29T01:28:08.746Z,2.10
2023-03-29T01:30:56.396Z,1.90
2023-03-29T01:33:31.612Z,1.70
2023-03-29T01:36:12.826Z,1.60
2023-03-29T01:38:47.753Z,1.40
2023-03-29T01:41:14.811Z,1.40
2023-03-29T01:43:45.109Z,1.30
2023-03-29T01:46:19.264Z,1.30
2023-03-29T01:48:59.282Z,1.20
2023-03-29T01:51:31.503Z,1.30
2023-03-29T01:54:01.863Z,1.30
2023-03-29T01:56:30.918Z,1.20
2023-03-29T01:59:02.581Z,1.20
2023-03-29T02:01:34.217Z,1.10
2023-03-29T02:04:05.188Z,1.00
2023-03-29T02:06:34.086Z,1.00
2023-03-29T02:09:03.671Z,1.00
2023-03-29T02:11:30.868Z,0.90
2023-03-29T02:13:57.827Z,0.90
2023-03-29T02:16:25.049Z,0.90
2023-03-29T02:18:53.019Z,0.90
2023-03-29T02:21:36.503Z,0.90
2023-03-29T02:24:07.179Z,0.90
2023-03-29T02:26:34.331Z,0.90
2023-03-29T02:29:01.380Z,0.80
2023-03-29T02:31:28.014Z,0.80
2023-03-29T02:34:10.282Z,0.80
2023-03-29T02:36:42.881Z,0.80
2023-03-29T02:39:14.190Z,0.80
2023-03-29T02:41:43.295Z,0.70
2023-03-29T02:44:15.407Z,0.70
2023-03-29T02:46:43.948Z,0.70
2023-03-29T02:49:11.529Z,0.80
2023-03-29T02:51:39.259Z,0.70
2023-03-29T02:54:17.788Z,0.70
2023-03-29T02:56:50.083Z,0.70
2023-03-29T02:59:19.393Z,0.70
2023-03-29T03:01:46.430Z,0.60
2023-03-29T03:04:13.540Z,0.60
2023-03-29T03:06:41.061Z,0.70
2023-03-29T03:09:07.962Z,0.70
2023-03-29T03:11:35.053Z,0.70
2023-03-29T03:14:01.794Z,0.80
2023-03-29T03:16:28.607Z,0.70
2023-03-29T03:18:55.926Z,0.80
2023-03-29T03:21:23.137Z,0.80
2023-03-29T03:23:50.079Z,0.90
2023-03-29T03:26:18.256Z,0.90
2023-03-29T03:28:46.028Z,1.00
2023-03-29T03:31:15.985Z,1.00
2023-03-29T03:33:42.861Z,1.00
2023-03-29T03:36:11.468Z,1.10
2023-03-29T03:38:38.685Z,1.10
2023-03-29T03:41:09.498Z,1.10
2023-03-29T03:43:36.484Z,1.10
2023-03-29T03:46:03.295Z,1.10
2023-03-29T03:48:29.978Z,1.10
2023-03-29T03:50:59.356Z,1.10
2023-03-29T03:53:27.359Z,1.10
2023-03-29T03:55:56.191Z,1.10
2023-03-29T03:58:23.406Z,1.10
2023-03-29T04:00:51.112Z,1.10
2023-03-29T04:03:18.507Z,1.10
2023-03-29T04:05:47.365Z,1.10
2023-03-29T04:08:14.957Z,1.10
2023-03-29T04:10:41.995Z,1.20
2023-03-29T04:13:08.992Z,1.20
2023-03-29T04:15:38.807Z,1.20
2023-03-29T04:18:07.780Z,1.20
2023-03-29T04:20:35.156Z,1.10
2023-03-29T04:23:01.890Z,1.10
2023-03-29T04:25:29.112Z,1.10
2023-03-29T04:27:56.075Z,1.10
2023-03-29T04:30:22.831Z,1.10
2023-03-29T04:32:49.591Z,1.10
2023-03-29T04:35:16.571Z,1.10
2023-03-29T04:37:43.601Z,1.10
2023-03-29T04:40:14.530Z,1.10
2023-03-29T04:42:45.877Z,1.10
2023-03-29T04:45:22.580Z,1.20
2023-03-29T04:47:49.775Z,1.20
2023-03-29T04:50:16.480Z,1.20
2023-03-29T04:52:45.662Z,1.20
2023-03-29T04:55:12.879Z,1.10
2023-03-29T04:57:39.900Z,1.10
2023-03-29T05:00:15.112Z,1.10
2023-03-29T05:02:44.419Z,1.00
2023-03-29T05:05:12.379Z,1.00
2023-03-29T05:07:39.406Z,1.00
2023-03-29T05:10:06.682Z,1.00
2023-03-29T05:12:33.633Z,1.00
2023-03-29T05:15:00.306Z,1.00
2023-03-29T05:17:27.711Z,1.00
2023-03-29T05:19:54.771Z,1.00
2023-03-29T05:22:21.741Z,1.00
2023-03-29T05:24:48.820Z,1.10
2023-03-29T05:27:17.011Z,1.20
2023-03-29T05:29:45.028Z,1.20
2023-03-29T05:32:11.839Z,1.30
2023-03-29T05:34:39.379Z,1.30
2023-03-29T05:37:06.187Z,1.30
2023-03-29T05:39:35.215Z,1.20
2023-03-29T05:42:04.534Z,1.30
2023-03-29T05:44:31.480Z,1.30
2023-03-29T05:46:58.491Z,1.40
2023-03-29T05:49:25.509Z,1.40
2023-03-29T05:51:52.361Z,1.40
2023-03-29T05:54:19.053Z,1.40
2023-03-29T05:56:46.015Z,1.40
2023-03-29T05:59:13.982Z,1.50
2023-03-29T06:01:41.742Z,1.40
2023-03-29T06:04:08.471Z,1.40
2023-03-29T06:06:36.298Z,1.50
2023-03-29T06:09:03.224Z,1.50
2023-03-29T06:11:29.870Z,1.50
2023-03-29T06:13:57.669Z,1.60
2023-03-29T06:16:25.194Z,1.70
2023-03-29T06:18:52.214Z,1.80
2023-03-29T06:21:18.874Z,1.80
2023-03-29T06:23:46.321Z,1.80
2023-03-29T06:26:13.517Z,1.90
2023-03-29T06:28:40.756Z,1.90
2023-03-29T06:31:10.140Z,1.90
2023-03-29T06:33:38.104Z,1.90
2023-03-29T06:36:05.010Z,1.90
2023-03-29T06:38:31.897Z,1.90
2023-03-29T06:41:07.027Z,1.90
2023-03-29T06:43:34.739Z,1.90
2023-03-29T06:46:01.932Z,2.00
2023-03-29T06:48:29.344Z,2.10
2023-03-29T06:50:56.450Z,2.30
2023-03-29T06:53:23.260Z,2.40
2023-03-29T06:55:52.500Z,2.40
2023-03-29T06:58:19.664Z,2.40
2023-03-29T07:00:47.471Z,2.30
2023-03-29T07:03:20.267Z,2.30
2023-03-29T07:05:47.593Z,2.30
2023-03-29T07:08:16.620Z,2.30
2023-03-29T07:10:47.452Z,2.30
2023-03-29T07:13:15.790Z,2.50
2023-03-29T07:15:43.282Z,2.70
2023-03-29T07:18:11.606Z,3.00
2023-03-29T07:20:39.069Z,3.10
2023-03-29T07:23:06.920Z,3.10
2023-03-29T07:25:34.218Z,3.20
2023-03-29T07:28:01.500Z,3.20
2023-03-29T07:30:32.380Z,3.30
2023-03-29T07:32:59.670Z,3.20
2023-03-29T07:35:27.052Z,3.20
2023-03-29T07:37:55.718Z,3.30
2023-03-29T07:40:23.859Z,3.40
2023-03-29T07:42:56.633Z,3.40
2023-03-29T07:45:26.612Z,3.40
2023-03-29T07:47:56.565Z,3.60
2023-03-29T07:50:23.295Z,3.50
2023-03-29T07:52:50.105Z,3.50
2023-03-29T07:55:17.311Z,3.60
2023-03-29T07:57:44.712Z,3.70
2023-03-29T08:00:16.318Z,4.00
2023-03-29T08:02:45.221Z,4.10
2023-03-29T08:05:14.100Z,4.10
2023-03-29T08:07:43.141Z,4.20
2023-03-29T08:10:12.501Z,4.50
2023-03-29T08:12:40.018Z,4.80
2023-03-29T08:15:07.359Z,4.50
2023-03-29T08:17:35.110Z,4.50
2023-03-29T08:20:02.535Z,4.50
2023-03-29T08:22:29.466Z,4.60
2023-03-29T08:24:56.508Z,5.00
2023-03-29T08:27:23.280Z,5.10
2023-03-29T08:29:50.156Z,5.10
2023-03-29T08:32:17.333Z,5.10
2023-03-29T08:34:44.081Z,5.20
2023-03-29T08:37:11.037Z,5.40
2023-03-29T08:39:37.802Z,5.60
2023-03-29T08:42:30.993Z,5.80
2023-03-29T08:45:14.952Z,5.90
2023-03-29T08:47:57.728Z,5.80
2023-03-29T08:50:36.704Z,6.10
2023-03-29T08:53:17.562Z,6.40
2023-03-29T08:55:48.243Z,6.40
2023-03-29T08:58:20.469Z,6.80
2023-03-29T09:01:09.756Z,7.40
2023-03-29T09:03:59.864Z,7.90
2023-03-29T09:06:26.865Z,7.90
2023-03-29T09:08:53.768Z,7.60
2023-03-29T09:11:23.717Z,7.30
2023-03-29T09:14:24.285Z,7.10
2023-03-29T09:17:12.123Z,7.20
2023-03-29T09:20:19.622Z,6.90
2023-03-29T09:23:19.696Z,6.70
2023-03-29T09:26:16.451Z,6.70
2023-03-29T09:29:02.800Z,7.40
2023-03-29T09:31:33.545Z,7.90
2023-03-29T09:34:18.905Z,8.40
2023-03-29T09:36:52.547Z,8.50
2023-03-29T09:39:21.541Z,8.40
2023-03-29T09:42:00.915Z,8.50
2023-03-29T09:44:33.332Z,9.00
2023-03-29T09:47:16.817Z,9.40
2023-03-29T09:49:48.153Z,9.80
2023-03-29T09:52:17.121Z,9.90
2023-03-29T09:54:44.232Z,10.20
2023-03-29T09:57:15.685Z,10.20
2023-03-29T09:59:43.793Z,10.10
2023-03-29T10:02:12.992Z,9.90
2023-03-29T10:04:42.388Z,9.40
2023-03-29T10:07:20.750Z,9.20
2023-03-29T10:09:56.867Z,9.20
2023-03-29T10:12:23.628Z,9.70
2023-03-29T10:14:53.826Z,10.20
2023-03-29T10:17:23.441Z,10.90
2023-03-29T10:19:50.658Z,12.30
2023-03-29T10:22:23.099Z,13.70
2023-03-29T10:24:52.495Z,14.60
2023-03-29T10:27:25.757Z,14.70
2023-03-29T10:29:52.843Z,15.10
2023-03-29T10:32:23.032Z,14.90
2023-03-29T10:34:51.669Z,14.10
2023-03-29T10:37:21.312Z,13.70
2023-03-29T10:39:48.817Z,13.30
2023-03-29T10:42:18.226Z,13.10
2023-03-29T10:44:57.557Z,13.00
2023-03-29T10:47:25.144Z,12.90
2023-03-29T10:49:58.955Z,13.30
2023-03-29T10:52:26.149Z,13.30
2023-03-29T10:54:56.335Z,13.50
2023-03-29T10:57:45.141Z,13.90
2023-03-29T11:00:22.787Z,14.00
2023-03-29T11:02:57.050Z,14.20
2023-03-29T11:05:27.586Z,15.20
2023-03-29T11:08:14.907Z,16.80
2023-03-29T11:11:00.711Z,17.70
2023-03-29T11:14:19.994Z,19.10
2023-03-29T11:16:52.815Z,20.80
2023-03-29T11:19:42.301Z,21.30
2023-03-29T11:22:18.232Z,21.30
2023-03-29T11:25:14.940Z,19.80
2023-03-29T11:28:04.465Z,18.20
2023-03-29T11:30:47.824Z,17.20
2023-03-29T11:33:32.803Z,18.90
2023-03-29T11:36:11.146Z,19.90
2023-03-29T11:38:56.282Z,20.60
2023-03-29T11:41:27.317Z,21.00
2023-03-29T11:43:57.495Z,20.90
2023-03-29T11:46:33.083Z,20.40
2023-03-29T11:49:10.157Z,20.30
2023-03-29T11:51:56.783Z,20.00
2023-03-29T11:54:36.246Z,19.70
2023-03-29T11:57:12.229Z,19.50
2023-03-29T12:00:02.183Z,19.30
2023-03-29T12:02:41.815Z,19.90
2023-03-29T12:05:27.356Z,20.10
2023-03-29T12:08:03.668Z,20.50
2023-03-29T12:10:59.198Z,22.00
2023-03-29T12:13:37.569Z,23.40
2023-03-29T12:16:23.017Z,23.60
2023-03-29T12:19:27.120Z,25.00
2023-03-29T12:21:57.121Z,25.80
2023-03-29T12:24:27.991Z,26.40
2023-03-29T12:27:08.280Z,24.90
2023-03-29T12:29:41.033Z,22.90
2023-03-29T12:32:16.575Z,21.40
2023-03-29T12:34:58.306Z,20.60
2023-03-29T12:37:36.780Z,20.30
2023-03-29T12:40:16.550Z,19.20
2023-03-29T12:42:45.729Z,18.50
2023-03-29T12:45:19.546Z,18.00
2023-03-29T12:47:47.367Z,17.30
2023-03-29T12:50:28.501Z,16.60
2023-03-29T12:53:26.521Z,16.20
2023-03-29T12:56:10.368Z,15.90
2023-03-29T12:58:39.857Z,16.70
2023-03-29T13:01:25.031Z,16.50
2023-03-29T13:03:56.237Z,16.10
2023-03-29T13:06:32.561Z,16.30
2023-03-29T13:09:19.414Z,15.90
2023-03-29T13:11:52.958Z,15.80
2023-03-29T13:14:22.390Z,15.50
2023-03-29T13:16:49.309Z,15.10
2023-03-29T13:19:33.460Z,14.50
2023-03-29T13:22:27.173Z,13.90
2023-03-29T13:25:35.840Z,13.50
2023-03-29T13:28:19.259Z,13.50
2023-03-29T13:31:13.220Z,13.80
2023-03-29T13:34:17.832Z,14.10
2023-03-29T13:37:09.005Z,14.10
2023-03-29T13:39:37.149Z,14.60
2023-03-29T13:42:32.665Z,14.90
2023-03-29T13:45:27.649Z,14.90
2023-03-29T13:48:06.018Z,15.50
2023-03-29T13:50:40.155Z,15.60
2023-03-29T13:53:33.019Z,15.70
2023-03-29T13:56:00.586Z,15.30
2023-03-29T13:58:56.191Z,15.00
2023-03-29T14:01:59.022Z,14.70
2023-03-29T14:04:30.376Z,14.30
2023-03-29T14:06:58.047Z,14.10
2023-03-29T14:09:33.561Z,13.80
2023-03-29T14:12:01.256Z,13.50
2023-03-29T14:14:31.874Z,13.40
2023-03-29T14:17:00.602Z,13.50
2023-03-29T14:19:34.541Z,13.10
2023-03-29T14:22:03.451Z,13.00
2023-03-29T14:24:48.436Z,13.00
2023-03-29T14:27:16.349Z,13.00
2023-03-29T14:29:49.788Z,13.20
2023-03-29T14:32:27.705Z,13.50
2023-03-29T14:34:54.466Z,13.50
2023-03-29T14:37:29.807Z,13.60
2023-03-29T14:39:58.752Z,13.70
2023-03-29T14:42:28.407Z,13.60
2023-03-29T14:45:04.589Z,13.40
2023-03-29T14:47:33.064Z,13.20
2023-03-29T14:50:01.846Z,13.10
2023-03-29T14:52:30.659Z,13.00
2023-03-29T14:55:01.038Z,13.10
2023-03-29T14:57:33.084Z,13.20
2023-03-29T15:00:02.418Z,13.20
2023-03-29T15:02:34.433Z,13.20
2023-03-29T15:05:06.441Z,13.00
2023-03-29T15:07:34.936Z,12.80
2023-03-29T15:10:05.529Z,12.60
2023-03-29T15:12:34.071Z,12.30
2023-03-29T15:15:02.618Z,12.10
2023-03-29T15:17:47.550Z,11.90
2023-03-29T15:20:30.078Z,11.90
2023-03-29T15:23:09.793Z,11.90
2023-03-29T15:25:38.957Z,11.90
2023-03-29T15:28:06.270Z,11.90
2023-03-29T15:30:39.764Z,11.90
2023-03-29T15:33:21.303Z,11.90
2023-03-29T15:35:51.904Z,11.90
2023-03-29T15:38:23.395Z,11.80
2023-03-29T15:40:54.559Z,11.90
2023-03-29T15:43:22.501Z,12.10
2023-03-29T15:45:50.060Z,12.00
2023-03-29T15:48:26.720Z,12.00
2023-03-29T15:50:54.662Z,12.10
2023-03-29T15:53:23.441Z,12.10
2023-03-29T15:55:55.738Z,12.20
2023-03-29T15:58:29.039Z,12.30
2023-03-29T16:01:23.816Z,12.30
2023-03-29T16:03:51.037Z,12.10
2023-03-29T16:06:24.341Z,12.00
2023-03-29T16:08:51.194Z,11.90
2023-03-29T16:11:24.623Z,12.00
2023-03-29T16:13:51.869Z,11.90
2023-03-29T16:16:18.609Z,11.80
2023-03-29T16:18:50.645Z,11.70
2023-03-29T16:21:19.344Z,11.60
2023-03-29T16:23:47.056Z,11.50
2023-03-29T16:26:16.307Z,11.50
2023-03-29T16:28:43.769Z,11.40
2023-03-29T16:31:12.532Z,11.40
2023-03-29T16:33:42.911Z,11.30
2023-03-29T16:36:10.401Z,11.10
2023-03-29T16:38:37.823Z,11.00
2023-03-29T16:41:04.789Z,10.80
2023-03-29T16:43:31.956Z,10.70
2023-03-29T16:45:58.998Z,10.60
2023-03-29T16:48:27.055Z,10.50
2023-03-29T16:50:53.772Z,10.50
2023-03-29T16:53:21.852Z,10.40
2023-03-29T16:55:49.912Z,10.30
2023-03-29T16:58:16.704Z,10.30
2023-03-29T17:00:46.367Z,10.30
2023-03-29T17:03:15.159Z,10.20
2023-03-29T17:05:51.320Z,10.20
2023-03-29T17:08:22.361Z,10.10
2023-03-29T17:10:53.592Z,10.10
2023-03-29T17:13:21.263Z,10.10
2023-03-29T17:16:07.678Z,10.10
2023-03-29T17:18:34.472Z,10.00
2023-03-29T17:21:01.670Z,10.00
2023-03-29T17:23:29.334Z,10.00
2023-03-29T17:25:56.226Z,10.00
2023-03-29T17:28:23.776Z,9.90
2023-03-29T17:30:50.815Z,9.90
2023-03-29T17:33:19.830Z,9.90
2023-03-29T17:35:48.829Z,9.80
2023-03-29T17:38:15.762Z,9.80
2023-03-29T17:40:42.566Z,9.80
2023-03-29T17:43:09.342Z,9.80
2023-03-29T17:45:36.324Z,9.80
2023-03-29T17:48:06.034Z,9.70
2023-03-29T17:50:33.434Z,9.70
2023-03-29T17:53:00.144Z,9.70
2023-03-29T17:55:27.443Z,9.60
2023-03-29T17:57:54.198Z,9.60
2023-03-29T18:00:21.301Z,9.60
2023-03-29T18:02:48.395Z,9.60
2023-03-29T18:05:15.194Z,9.50
2023-03-29T18:07:41.937Z,9.50
2023-03-29T18:10:46.813Z,9.50
2023-03-29T18:13:14.951Z,9.50
2023-03-29T18:15:45.200Z,9.50
2023-03-29T18:18:11.938Z,9.50
2023-03-29T18:20:38.663Z,9.50
2023-03-29T18:23:05.435Z,9.50
2023-03-29T18:25:32.283Z,9.40
2023-03-29T18:27:59.221Z,9.40
2023-03-29T18:30:26.492Z,9.30
2023-03-29T18:32:53.323Z,9.20
2023-03-29T18:35:20.205Z,9.20
2023-03-29T18:37:47.353Z,9.20
2023-03-29T18:40:15.896Z,9.10
2023-03-29T18:42:42.644Z,9.10
2023-03-29T18:45:09.834Z,9.10
2023-03-29T18:47:37.293Z,9.00
2023-03-29T18:50:04.540Z,9.00
2023-03-29T18:52:31.327Z,8.90
2023-03-29T18:54:58.368Z,8.80
2023-03-29T18:57:25.348Z,8.80
2023-03-29T18:59:52.357Z,8.70
2023-03-29T19:02:19.290Z,8.80
2023-03-29T19:04:46.727Z,8.70
2023-03-29T19:07:13.514Z,8.70
2023-03-29T19:09:41.696Z,8.70
2023-03-29T19:12:08.885Z,8.70
2023-03-29T19:14:36.090Z,8.70
2023-03-29T19:17:02.853Z,8.70
2023-03-29T19:19:29.559Z,8.60
2023-03-29T19:21:59.003Z,8.60
2023-03-29T19:24:27.407Z,8.70
2023-03-29T19:26:54.222Z,8.70
2023-03-29T19:29:21.075Z,8.70
2023-03-29T19:31:48.159Z,8.60
2023-03-29T19:34:15.673Z,8.50
2023-03-29T19:36:42.419Z,8.40
2023-03-29T19:39:09.171Z,8.20
2023-03-29T19:41:36.358Z,8.20
2023-03-29T19:44:03.422Z,8.10
2023-03-29T19:46:30.414Z,8.00
2023-03-29T19:48:59.638Z,7.90
2023-03-29T19:51:27.552Z,7.90
2023-03-29T19:53:55.393Z,7.80
2023-03-29T19:56:23.744Z,7.70
2023-03-29T19:58:51.130Z,7.60
2023-03-29T20:01:21.542Z,7.60
2023-03-29T20:03:49.137Z,7.50
2023-03-29T20:06:17.893Z,7.40
2023-03-29T20:08:45.834Z,7.40
2023-03-29T20:11:13.785Z,7.30
2023-03-29T20:13:44.964Z,7.30
2023-03-29T20:16:27.363Z,7.20
2023-03-29T20:18:54.152Z,7.20
2023-03-29T20:21:21.182Z,7.20
2023-03-29T20:23:47.964Z,7.20
2023-03-29T20:26:15.536Z,7.10
2023-03-29T20:28:42.550Z,7.10
2023-03-29T20:31:12.930Z,7.10
2023-03-29T20:33:41.358Z,7.00
2023-03-29T20:36:09.102Z,7.00
2023-03-29T20:38:36.379Z,7.00
2023-03-29T20:41:05.154Z,7.00
2023-03-29T20:43:37.633Z,7.00
2023-03-29T20:46:06.098Z,7.00
2023-03-29T20:48:32.830Z,7.00
2023-03-29T20:51:03.009Z,7.00
2023-03-29T20:53:34.461Z,7.00
2023-03-29T20:56:01.223Z,7.00
2023-03-29T20:58:29.313Z,7.00
2023-03-29T21:00:58.958Z,7.00
2023-03-29T21:03:26.143Z,7.10
2023-03-29T21:05:58.423Z,7.10
2023-03-29T21:08:28.827Z,7.20
2023-03-29T21:10:56.294Z,7.20
2023-03-29T21:13:23.677Z,7.40
2023-03-29T21:15:51.080Z,7.30
2023-03-29T21:18:18.210Z,7.30
2023-03-29T21:20:45.449Z,7.30
2023-03-29T21:23:14.156Z,7.20
2023-03-29T21:25:40.903Z,7.20
2023-03-29T21:28:07.658Z,7.20
2023-03-29T21:30:34.751Z,7.20
2023-03-29T21:33:01.721Z,7.20
2023-03-29T21:35:28.580Z,7.20
2023-03-29T21:37:55.683Z,7.20
2023-03-29T21:40:22.458Z,7.20
2023-03-29T21:42:49.394Z,7.20
2023-03-29T21:45:16.201Z,7.20
2023-03-29T21:47:43.198Z,7.10
2023-03-29T21:50:27.918Z,7.10
2023-03-29T21:52:54.617Z,7.10
2023-03-29T21:55:21.623Z,7.00
2023-03-29T21:57:48.861Z,7.00
2023-03-29T22:00:17.714Z,7.00
2023-03-29T22:02:46.168Z,7.10
2023-03-29T22:05:13.052Z,7.10
2023-03-29T22:07:39.759Z,7.10
2023-03-29T22:10:12.379Z,7.10
2023-03-29T22:12:39.918Z,7.10
2023-03-29T22:15:08.406Z,7.10
2023-03-29T22:17:36.038Z,7.00
2023-03-29T22:20:14.088Z,7.10
2023-03-29T22:22:44.942Z,7.20
2023-03-29T22:25:12.296Z,7.10
2023-03-29T22:27:39.447Z,7.10
2023-03-29T22:30:06.918Z,7.00
2023-03-29T22:32:33.973Z,7.00
2023-03-29T22:35:00.737Z,7.00
2023-03-29T22:37:27.428Z,7.00
2023-03-29T22:39:54.456Z,7.00
2023-03-29T22:42:21.515Z,7.00
2023-03-29T22:44:48.267Z,7.00
2023-03-29T22:47:15.577Z,7.00
2023-03-29T22:49:42.335Z,6.90
2023-03-29T22:52:09.307Z,6.90
2023-03-29T22:54:36.222Z,6.90
2023-03-29T22:57:03.357Z,6.90
2023-03-29T22:59:30.096Z,6.90
2023-03-29T23:01:57.087Z,6.90
2023-03-29T23:04:23.933Z,6.90
2023-03-29T23:06:51.375Z,6.90
2023-03-29T23:09:18.124Z,6.80
2023-03-29T23:11:44.874Z,6.80
2023-03-29T23:14:11.935Z,6.80
2023-03-29T23:16:38.741Z,6.70
2023-03-29T23:19:05.514Z,6.70
2023-03-29T23:21:32.266Z,6.70
2023-03-29T23:23:59.264Z,6.60
2023-03-29T23:26:27.740Z,6.70
2023-03-29T23:28:54.742Z,6.70
2023-03-29T23:31:21.644Z,6.70
2023-03-29T23:33:49.698Z,6.60
2023-03-29T23:36:18.401Z,6.60
2023-03-29T23:38:46.967Z,6.60
2023-03-29T23:41:13.878Z,6.70
2023-03-29T23:43:43.207Z,6.60
2023-03-29T23:46:12.718Z,6.70
2023-03-29T23:48:43.671Z,6.70
2023-03-29T23:51:10.605Z,6.70
2023-03-29T23:53:37.601Z,6.60
2023-03-29T23:56:05.755Z,6.60
2023-03-29T23:58:34.689Z,6.60
